sensor_id;sensor_type;location;lat;lon;timestamp;P1;durP1;ratioP1;P2;durP2;ratioP2
57077;SDS011;75967;50.970;4.574;2024-02-04T00:02:07;29.77;;;16.05;;
57077;SDS011;75967;50.970;4.574;2024-02-04T00:04:34;27.88;;;13.65;;
57077;SDS011;75967;50.970;4.574;2024-02-04T00:07:00;25.48;;;14.00;;
57077;SDS011;75967;50.970;4.574;2024-02-04T00:09:26;23.33;;;13.52;;
57077;SDS011;75967;50.970;4.574;2024-02-04T00:11:55;26.10;;;12.43;;
57077;SDS011;75967;50.970;4.574;2024-02-04T00:14:20;31.02;;;13.70;;
57077;SDS011;75967;50.970;4.574;2024-02-04T00:16:46;20.63;;;12.55;;
57077;SDS011;75967;50.970;4.574;2024-02-04T00:19:12;26.25;;;12.85;;
57077;SDS011;75967;50.970;4.574;2024-02-04T00:21:37;25.77;;;12.50;;
57077;SDS011;75967;50.970;4.574;2024-02-04T00:24:03;25.63;;;12.70;;
57077;SDS011;75967;50.970;4.574;2024-02-04T00:26:29;19.65;;;12.40;;
57077;SDS011;75967;50.970;4.574;2024-02-04T00:28:54;28.15;;;13.02;;
57077;SDS011;75967;50.970;4.574;2024-02-04T00:31:20;20.58;;;11.45;;
57077;SDS011;75967;50.970;4.574;2024-02-04T00:33:46;24.65;;;12.18;;
57077;SDS011;75967;50.970;4.574;2024-02-04T00:36:11;23.50;;;11.75;;
57077;SDS011;75967;50.970;4.574;2024-02-04T00:38:37;25.20;;;12.85;;
57077;SDS011;75967;50.970;4.574;2024-02-04T00:41:03;21.35;;;12.02;;
57077;SDS011;75967;50.970;4.574;2024-02-04T00:43:30;27.20;;;11.43;;
57077;SDS011;75967;50.970;4.574;2024-02-04T00:45:56;23.52;;;11.68;;
57077;SDS011;75967;50.970;4.574;2024-02-04T00:48:21;26.52;;;12.80;;
57077;SDS011;75967;50.970;4.574;2024-02-04T00:50:47;21.42;;;11.18;;
57077;SDS011;75967;50.970;4.574;2024-02-04T00:53:13;24.08;;;11.23;;
57077;SDS011;75967;50.970;4.574;2024-02-04T00:55:38;19.75;;;10.35;;
57077;SDS011;75967;50.970;4.574;2024-02-04T00:58:04;19.70;;;10.23;;
57077;SDS011;75967;50.970;4.574;2024-02-04T01:00:30;24.63;;;10.70;;
57077;SDS011;75967;50.970;4.574;2024-02-04T01:02:55;21.80;;;10.52;;
57077;SDS011;75967;50.970;4.574;2024-02-04T01:05:21;19.48;;;9.95;;
57077;SDS011;75967;50.970;4.574;2024-02-04T01:07:47;19.15;;;11.45;;
57077;SDS011;75967;50.970;4.574;2024-02-04T01:10:12;19.83;;;10.85;;
57077;SDS011;75967;50.970;4.574;2024-02-04T01:12:38;24.52;;;11.85;;
57077;SDS011;75967;50.970;4.574;2024-02-04T01:15:04;26.00;;;12.77;;
57077;SDS011;75967;50.970;4.574;2024-02-04T01:17:30;19.58;;;10.38;;
57077;SDS011;75967;50.970;4.574;2024-02-04T01:19:57;26.80;;;12.38;;
57077;SDS011;75967;50.970;4.574;2024-02-04T01:22:23;23.58;;;13.20;;
57077;SDS011;75967;50.970;4.574;2024-02-04T01:24:51;27.73;;;11.45;;
57077;SDS011;75967;50.970;4.574;2024-02-04T01:27:17;24.38;;;10.38;;
57077;SDS011;75967;50.970;4.574;2024-02-04T01:29:42;23.80;;;10.80;;
57077;SDS011;75967;50.970;4.574;2024-02-04T01:32:08;18.08;;;11.45;;
57077;SDS011;75967;50.970;4.574;2024-02-04T01:34:34;25.63;;;11.57;;
57077;SDS011;75967;50.970;4.574;2024-02-04T01:36:59;25.38;;;10.85;;
57077;SDS011;75967;50.970;4.574;2024-02-04T01:39:25;22.25;;;11.70;;
57077;SDS011;75967;50.970;4.574;2024-02-04T01:41:50;21.50;;;11.80;;
57077;SDS011;75967;50.970;4.574;2024-02-04T01:44:16;25.30;;;11.75;;
57077;SDS011;75967;50.970;4.574;2024-02-04T01:46:43;19.92;;;11.00;;
57077;SDS011;75967;50.970;4.574;2024-02-04T01:49:09;21.92;;;10.48;;
57077;SDS011;75967;50.970;4.574;2024-02-04T01:51:35;16.48;;;9.88;;
57077;SDS011;75967;50.970;4.574;2024-02-04T01:54:02;20.02;;;11.23;;
57077;SDS011;75967;50.970;4.574;2024-02-04T01:56:29;22.27;;;11.82;;
57077;SDS011;75967;50.970;4.574;2024-02-04T01:58:55;23.42;;;12.75;;
57077;SDS011;75967;50.970;4.574;2024-02-04T02:01:22;22.65;;;11.65;;
57077;SDS011;75967;50.970;4.574;2024-02-04T02:03:48;19.17;;;10.05;;
57077;SDS011;75967;50.970;4.574;2024-02-04T02:06:15;19.13;;;10.82;;
57077;SDS011;75967;50.970;4.574;2024-02-04T02:08:41;23.60;;;11.20;;
57077;SDS011;75967;50.970;4.574;2024-02-04T02:11:18;18.00;;;10.35;;
57077;SDS011;75967;50.970;4.574;2024-02-04T02:13:54;18.55;;;11.02;;
57077;SDS011;75967;50.970;4.574;2024-02-04T02:16:25;18.20;;;10.95;;
57077;SDS011;75967;50.970;4.574;2024-02-04T02:18:57;21.02;;;11.65;;
57077;SDS011;75967;50.970;4.574;2024-02-04T02:24:38;23.58;;;12.27;;
57077;SDS011;75967;50.970;4.574;2024-02-04T02:27:06;21.58;;;12.23;;
57077;SDS011;75967;50.970;4.574;2024-02-04T02:29:32;24.67;;;11.25;;
57077;SDS011;75967;50.970;4.574;2024-02-04T02:31:58;20.70;;;12.07;;
57077;SDS011;75967;50.970;4.574;2024-02-04T02:34:24;26.02;;;11.25;;
57077;SDS011;75967;50.970;4.574;2024-02-04T02:36:52;22.83;;;13.23;;
57077;SDS011;75967;50.970;4.574;2024-02-04T02:40:29;24.73;;;11.73;;
57077;SDS011;75967;50.970;4.574;2024-02-04T02:42:45;24.13;;;12.68;;
57077;SDS011;75967;50.970;4.574;2024-02-04T02:45:12;26.52;;;12.90;;
57077;SDS011;75967;50.970;4.574;2024-02-04T02:47:39;20.38;;;10.02;;
57077;SDS011;75967;50.970;4.574;2024-02-04T02:50:05;29.90;;;13.52;;
57077;SDS011;75967;50.970;4.574;2024-02-04T02:52:32;25.15;;;12.50;;
57077;SDS011;75967;50.970;4.574;2024-02-04T02:54:58;28.98;;;13.35;;
57077;SDS011;75967;50.970;4.574;2024-02-04T02:57:24;25.05;;;12.75;;
57077;SDS011;75967;50.970;4.574;2024-02-04T02:59:49;21.77;;;11.82;;
57077;SDS011;75967;50.970;4.574;2024-02-04T03:02:15;24.23;;;12.75;;
57077;SDS011;75967;50.970;4.574;2024-02-04T03:04:41;21.55;;;10.68;;
57077;SDS011;75967;50.970;4.574;2024-02-04T03:07:06;22.83;;;12.20;;
57077;SDS011;75967;50.970;4.574;2024-02-04T03:09:33;21.80;;;12.60;;
57077;SDS011;75967;50.970;4.574;2024-02-04T03:11:58;19.83;;;11.63;;
57077;SDS011;75967;50.970;4.574;2024-02-04T03:14:24;25.98;;;12.38;;
57077;SDS011;75967;50.970;4.574;2024-02-04T03:16:50;23.58;;;11.32;;
57077;SDS011;75967;50.970;4.574;2024-02-04T03:19:15;27.55;;;11.90;;
57077;SDS011;75967;50.970;4.574;2024-02-04T03:21:41;20.63;;;10.77;;
57077;SDS011;75967;50.970;4.574;2024-02-04T03:24:06;22.85;;;10.88;;
57077;SDS011;75967;50.970;4.574;2024-02-04T03:26:32;22.83;;;10.88;;
57077;SDS011;75967;50.970;4.574;2024-02-04T03:28:58;23.23;;;11.50;;
57077;SDS011;75967;50.970;4.574;2024-02-04T03:31:23;21.23;;;11.63;;
57077;SDS011;75967;50.970;4.574;2024-02-04T03:33:49;17.45;;;9.75;;
57077;SDS011;75967;50.970;4.574;2024-02-04T03:36:18;26.05;;;10.18;;
57077;SDS011;75967;50.970;4.574;2024-02-04T03:38:44;23.45;;;11.23;;
57077;SDS011;75967;50.970;4.574;2024-02-04T03:41:10;24.27;;;10.38;;
57077;SDS011;75967;50.970;4.574;2024-02-04T03:43:36;14.20;;;9.00;;
57077;SDS011;75967;50.970;4.574;2024-02-04T03:46:02;21.45;;;11.57;;
57077;SDS011;75967;50.970;4.574;2024-02-04T03:48:28;23.20;;;10.32;;
57077;SDS011;75967;50.970;4.574;2024-02-04T03:50:53;17.48;;;9.25;;
57077;SDS011;75967;50.970;4.574;2024-02-04T03:53:19;16.88;;;9.52;;
57077;SDS011;75967;50.970;4.574;2024-02-04T03:55:47;17.92;;;9.02;;
57077;SDS011;75967;50.970;4.574;2024-02-04T03:58:16;17.98;;;8.68;;
57077;SDS011;75967;50.970;4.574;2024-02-04T04:00:42;14.13;;;8.27;;
57077;SDS011;75967;50.970;4.574;2024-02-04T04:03:08;13.68;;;8.30;;
57077;SDS011;75967;50.970;4.574;2024-02-04T04:05:33;16.75;;;8.50;;
57077;SDS011;75967;50.970;4.574;2024-02-04T04:07:59;15.90;;;7.75;;
57077;SDS011;75967;50.970;4.574;2024-02-04T04:10:24;20.67;;;9.50;;
57077;SDS011;75967;50.970;4.574;2024-02-04T04:12:50;20.08;;;8.73;;
57077;SDS011;75967;50.970;4.574;2024-02-04T04:15:16;17.08;;;8.02;;
57077;SDS011;75967;50.970;4.574;2024-02-04T04:17:41;14.10;;;8.10;;
57077;SDS011;75967;50.970;4.574;2024-02-04T04:20:07;21.40;;;9.38;;
57077;SDS011;75967;50.970;4.574;2024-02-04T04:22:33;16.63;;;8.25;;
57077;SDS011;75967;50.970;4.574;2024-02-04T04:24:59;13.30;;;8.60;;
57077;SDS011;75967;50.970;4.574;2024-02-04T04:27:24;15.95;;;9.13;;
57077;SDS011;75967;50.970;4.574;2024-02-04T04:29:50;14.77;;;8.32;;
57077;SDS011;75967;50.970;4.574;2024-02-04T04:32:16;23.77;;;9.45;;
57077;SDS011;75967;50.970;4.574;2024-02-04T04:34:41;20.63;;;9.45;;
57077;SDS011;75967;50.970;4.574;2024-02-04T04:37:07;15.85;;;8.85;;
57077;SDS011;75967;50.970;4.574;2024-02-04T04:39:32;15.57;;;7.95;;
57077;SDS011;75967;50.970;4.574;2024-02-04T04:41:58;18.30;;;9.50;;
57077;SDS011;75967;50.970;4.574;2024-02-04T04:44:23;17.52;;;9.18;;
57077;SDS011;75967;50.970;4.574;2024-02-04T04:46:49;17.10;;;9.07;;
57077;SDS011;75967;50.970;4.574;2024-02-04T04:49:15;24.08;;;9.50;;
57077;SDS011;75967;50.970;4.574;2024-02-04T04:51:44;20.75;;;8.90;;
57077;SDS011;75967;50.970;4.574;2024-02-04T04:54:11;15.20;;;8.15;;
57077;SDS011;75967;50.970;4.574;2024-02-04T04:56:40;16.45;;;8.30;;
57077;SDS011;75967;50.970;4.574;2024-02-04T04:59:06;18.75;;;9.18;;
57077;SDS011;75967;50.970;4.574;2024-02-04T05:01:32;16.63;;;8.10;;
57077;SDS011;75967;50.970;4.574;2024-02-04T05:03:59;17.95;;;8.85;;
57077;SDS011;75967;50.970;4.574;2024-02-04T05:06:25;17.25;;;8.80;;
57077;SDS011;75967;50.970;4.574;2024-02-04T05:08:50;19.75;;;8.35;;
57077;SDS011;75967;50.970;4.574;2024-02-04T05:11:16;20.15;;;8.25;;
57077;SDS011;75967;50.970;4.574;2024-02-04T05:13:42;17.95;;;8.77;;
57077;SDS011;75967;50.970;4.574;2024-02-04T05:16:08;20.90;;;8.43;;
57077;SDS011;75967;50.970;4.574;2024-02-04T05:18:33;17.23;;;9.13;;
57077;SDS011;75967;50.970;4.574;2024-02-04T05:21:00;18.40;;;8.00;;
57077;SDS011;75967;50.970;4.574;2024-02-04T05:23:27;18.02;;;8.45;;
57077;SDS011;75967;50.970;4.574;2024-02-04T05:25:53;18.63;;;8.38;;
57077;SDS011;75967;50.970;4.574;2024-02-04T05:28:20;19.20;;;8.77;;
57077;SDS011;75967;50.970;4.574;2024-02-04T05:30:45;13.27;;;7.03;;
57077;SDS011;75967;50.970;4.574;2024-02-04T05:33:14;14.85;;;7.47;;
57077;SDS011;75967;50.970;4.574;2024-02-04T05:35:40;16.52;;;7.28;;
57077;SDS011;75967;50.970;4.574;2024-02-04T05:38:07;17.38;;;7.30;;
57077;SDS011;75967;50.970;4.574;2024-02-04T05:40:34;16.58;;;7.82;;
57077;SDS011;75967;50.970;4.574;2024-02-04T05:42:59;16.98;;;9.27;;
57077;SDS011;75967;50.970;4.574;2024-02-04T05:45:30;14.73;;;7.50;;
57077;SDS011;75967;50.970;4.574;2024-02-04T05:47:56;16.67;;;8.15;;
57077;SDS011;75967;50.970;4.574;2024-02-04T05:50:22;13.65;;;7.63;;
57077;SDS011;75967;50.970;4.574;2024-02-04T05:52:47;17.80;;;9.07;;
57077;SDS011;75967;50.970;4.574;2024-02-04T05:55:14;15.00;;;8.55;;
57077;SDS011;75967;50.970;4.574;2024-02-04T05:57:39;16.80;;;8.43;;
57077;SDS011;75967;50.970;4.574;2024-02-04T06:00:06;17.30;;;7.90;;
57077;SDS011;75967;50.970;4.574;2024-02-04T06:02:33;20.33;;;8.85;;
57077;SDS011;75967;50.970;4.574;2024-02-04T06:04:58;20.63;;;8.25;;
57077;SDS011;75967;50.970;4.574;2024-02-04T06:07:24;18.83;;;8.07;;
57077;SDS011;75967;50.970;4.574;2024-02-04T06:09:50;19.23;;;9.65;;
57077;SDS011;75967;50.970;4.574;2024-02-04T06:12:15;16.58;;;8.60;;
57077;SDS011;75967;50.970;4.574;2024-02-04T06:14:41;25.13;;;9.45;;
57077;SDS011;75967;50.970;4.574;2024-02-04T06:17:06;19.65;;;9.45;;
57077;SDS011;75967;50.970;4.574;2024-02-04T06:19:35;20.35;;;9.18;;
57077;SDS011;75967;50.970;4.574;2024-02-04T06:22:01;21.45;;;8.68;;
57077;SDS011;75967;50.970;4.574;2024-02-04T06:24:26;16.85;;;8.85;;
57077;SDS011;75967;50.970;4.574;2024-02-04T06:26:52;23.23;;;9.57;;
57077;SDS011;75967;50.970;4.574;2024-02-04T06:29:18;28.13;;;10.50;;
57077;SDS011;75967;50.970;4.574;2024-02-04T06:31:44;23.90;;;9.70;;
57077;SDS011;75967;50.970;4.574;2024-02-04T06:34:10;19.88;;;10.38;;
57077;SDS011;75967;50.970;4.574;2024-02-04T06:36:36;19.25;;;9.60;;
57077;SDS011;75967;50.970;4.574;2024-02-04T06:39:01;27.63;;;10.60;;
57077;SDS011;75967;50.970;4.574;2024-02-04T06:41:27;26.92;;;11.13;;
57077;SDS011;75967;50.970;4.574;2024-02-04T06:43:53;33.97;;;11.63;;
57077;SDS011;75967;50.970;4.574;2024-02-04T06:46:28;28.92;;;12.02;;
57077;SDS011;75967;50.970;4.574;2024-02-04T06:48:54;23.05;;;11.88;;
57077;SDS011;75967;50.970;4.574;2024-02-04T06:51:22;26.17;;;11.82;;
57077;SDS011;75967;50.970;4.574;2024-02-04T06:53:48;24.65;;;10.73;;
57077;SDS011;75967;50.970;4.574;2024-02-04T06:56:14;25.80;;;11.18;;
57077;SDS011;75967;50.970;4.574;2024-02-04T06:58:40;29.55;;;9.95;;
57077;SDS011;75967;50.970;4.574;2024-02-04T07:01:06;23.83;;;9.63;;
57077;SDS011;75967;50.970;4.574;2024-02-04T07:03:32;15.35;;;8.95;;
57077;SDS011;75967;50.970;4.574;2024-02-04T07:05:58;25.58;;;9.95;;
57077;SDS011;75967;50.970;4.574;2024-02-04T07:08:24;19.92;;;9.32;;
57077;SDS011;75967;50.970;4.574;2024-02-04T07:10:50;23.35;;;8.43;;
57077;SDS011;75967;50.970;4.574;2024-02-04T07:13:16;19.10;;;9.38;;
57077;SDS011;75967;50.970;4.574;2024-02-04T07:15:42;15.82;;;8.60;;
57077;SDS011;75967;50.970;4.574;2024-02-04T07:18:08;21.85;;;10.07;;
57077;SDS011;75967;50.970;4.574;2024-02-04T07:20:34;23.58;;;8.77;;
57077;SDS011;75967;50.970;4.574;2024-02-04T07:22:59;22.10;;;8.35;;
57077;SDS011;75967;50.970;4.574;2024-02-04T07:25:25;24.17;;;8.82;;
57077;SDS011;75967;50.970;4.574;2024-02-04T07:27:51;22.42;;;9.05;;
57077;SDS011;75967;50.970;4.574;2024-02-04T07:30:16;15.48;;;8.43;;
57077;SDS011;75967;50.970;4.574;2024-02-04T07:32:42;21.65;;;9.15;;
57077;SDS011;75967;50.970;4.574;2024-02-04T07:35:08;20.50;;;8.73;;
57077;SDS011;75967;50.970;4.574;2024-02-04T07:37:34;23.55;;;9.43;;
57077;SDS011;75967;50.970;4.574;2024-02-04T07:40:01;18.92;;;9.27;;
57077;SDS011;75967;50.970;4.574;2024-02-04T07:42:27;20.98;;;9.60;;
57077;SDS011;75967;50.970;4.574;2024-02-04T07:44:53;18.77;;;7.93;;
57077;SDS011;75967;50.970;4.574;2024-02-04T07:47:19;23.65;;;14.60;;
57077;SDS011;75967;50.970;4.574;2024-02-04T07:49:47;18.52;;;7.80;;
57077;SDS011;75967;50.970;4.574;2024-02-04T07:52:16;25.60;;;10.23;;
57077;SDS011;75967;50.970;4.574;2024-02-04T07:54:41;13.40;;;8.68;;
57077;SDS011;75967;50.970;4.574;2024-02-04T07:57:09;21.42;;;8.68;;
57077;SDS011;75967;50.970;4.574;2024-02-04T07:59:35;16.92;;;8.82;;
57077;SDS011;75967;50.970;4.574;2024-02-04T08:02:01;18.77;;;8.68;;
57077;SDS011;75967;50.970;4.574;2024-02-04T08:04:27;17.40;;;8.10;;
57077;SDS011;75967;50.970;4.574;2024-02-04T08:06:53;16.13;;;8.60;;
57077;SDS011;75967;50.970;4.574;2024-02-04T08:09:19;17.05;;;8.77;;
57077;SDS011;75967;50.970;4.574;2024-02-04T08:11:45;22.60;;;9.73;;
57077;SDS011;75967;50.970;4.574;2024-02-04T08:14:10;16.63;;;8.95;;
57077;SDS011;75967;50.970;4.574;2024-02-04T08:16:36;18.08;;;9.00;;
57077;SDS011;75967;50.970;4.574;2024-02-04T08:19:02;17.95;;;9.90;;
57077;SDS011;75967;50.970;4.574;2024-02-04T08:21:27;18.52;;;10.20;;
57077;SDS011;75967;50.970;4.574;2024-02-04T08:23:56;19.75;;;10.13;;
57077;SDS011;75967;50.970;4.574;2024-02-04T08:26:22;18.33;;;9.32;;
57077;SDS011;75967;50.970;4.574;2024-02-04T08:28:47;19.30;;;10.77;;
57077;SDS011;75967;50.970;4.574;2024-02-04T08:31:13;22.02;;;10.75;;
57077;SDS011;75967;50.970;4.574;2024-02-04T08:33:39;18.92;;;8.48;;
57077;SDS011;75967;50.970;4.574;2024-02-04T08:36:04;15.27;;;7.80;;
57077;SDS011;75967;50.970;4.574;2024-02-04T08:38:31;19.58;;;8.90;;
57077;SDS011;75967;50.970;4.574;2024-02-04T08:40:57;14.68;;;7.75;;
57077;SDS011;75967;50.970;4.574;2024-02-04T08:43:22;16.23;;;7.60;;
57077;SDS011;75967;50.970;4.574;2024-02-04T08:45:48;12.95;;;6.00;;
57077;SDS011;75967;50.970;4.574;2024-02-04T08:48:14;12.27;;;6.68;;
57077;SDS011;75967;50.970;4.574;2024-02-04T08:50:39;12.07;;;5.63;;
57077;SDS011;75967;50.970;4.574;2024-02-04T08:53:05;9.95;;;5.80;;
57077;SDS011;75967;50.970;4.574;2024-02-04T08:55:31;11.77;;;6.28;;
57077;SDS011;75967;50.970;4.574;2024-02-04T08:57:57;9.65;;;6.50;;
57077;SDS011;75967;50.970;4.574;2024-02-04T09:00:22;12.18;;;4.90;;
57077;SDS011;75967;50.970;4.574;2024-02-04T09:02:48;11.93;;;5.35;;
57077;SDS011;75967;50.970;4.574;2024-02-04T09:05:14;11.55;;;6.25;;
57077;SDS011;75967;50.970;4.574;2024-02-04T09:07:41;12.90;;;6.45;;
57077;SDS011;75967;50.970;4.574;2024-02-04T09:10:07;10.45;;;4.80;;
57077;SDS011;75967;50.970;4.574;2024-02-04T09:12:32;10.85;;;6.10;;
57077;SDS011;75967;50.970;4.574;2024-02-04T09:14:58;12.07;;;6.35;;
57077;SDS011;75967;50.970;4.574;2024-02-04T09:17:24;12.15;;;5.90;;
57077;SDS011;75967;50.970;4.574;2024-02-04T09:19:49;8.05;;;5.38;;
57077;SDS011;75967;50.970;4.574;2024-02-04T09:22:15;10.13;;;5.68;;
57077;SDS011;75967;50.970;4.574;2024-02-04T09:24:41;13.93;;;6.70;;
57077;SDS011;75967;50.970;4.574;2024-02-04T09:27:07;14.38;;;5.65;;
57077;SDS011;75967;50.970;4.574;2024-02-04T09:29:33;15.50;;;6.00;;
57077;SDS011;75967;50.970;4.574;2024-02-04T09:31:58;11.15;;;5.47;;
57077;SDS011;75967;50.970;4.574;2024-02-04T09:34:24;12.32;;;6.07;;
57077;SDS011;75967;50.970;4.574;2024-02-04T09:36:49;13.00;;;5.78;;
57077;SDS011;75967;50.970;4.574;2024-02-04T09:39:18;14.82;;;6.35;;
57077;SDS011;75967;50.970;4.574;2024-02-04T09:41:44;8.73;;;4.90;;
57077;SDS011;75967;50.970;4.574;2024-02-04T09:44:09;12.27;;;5.22;;
57077;SDS011;75967;50.970;4.574;2024-02-04T09:46:36;11.20;;;5.03;;
57077;SDS011;75967;50.970;4.574;2024-02-04T09:49:02;8.90;;;4.50;;
57077;SDS011;75967;50.970;4.574;2024-02-04T09:51:29;9.05;;;5.07;;
57077;SDS011;75967;50.970;4.574;2024-02-04T09:53:56;9.98;;;4.63;;
57077;SDS011;75967;50.970;4.574;2024-02-04T09:56:27;13.35;;;5.13;;
57077;SDS011;75967;50.970;4.574;2024-02-04T09:58:54;4.78;;;3.58;;
57077;SDS011;75967;50.970;4.574;2024-02-04T10:01:21;10.38;;;4.07;;
57077;SDS011;75967;50.970;4.574;2024-02-04T10:03:48;10.75;;;3.47;;
57077;SDS011;75967;50.970;4.574;2024-02-04T10:06:14;11.88;;;4.28;;
57077;SDS011;75967;50.970;4.574;2024-02-04T10:08:40;8.43;;;3.50;;
57077;SDS011;75967;50.970;4.574;2024-02-04T10:11:06;8.00;;;4.15;;
57077;SDS011;75967;50.970;4.574;2024-02-04T10:13:42;7.18;;;3.05;;
57077;SDS011;75967;50.970;4.574;2024-02-04T10:16:14;10.73;;;4.95;;
57077;SDS011;75967;50.970;4.574;2024-02-04T10:18:46;9.00;;;3.90;;
57077;SDS011;75967;50.970;4.574;2024-02-04T10:21:20;7.97;;;4.10;;
57077;SDS011;75967;50.970;4.574;2024-02-04T10:23:48;8.27;;;3.97;;
57077;SDS011;75967;50.970;4.574;2024-02-04T10:26:14;10.95;;;3.80;;
57077;SDS011;75967;50.970;4.574;2024-02-04T10:28:41;6.63;;;3.17;;
57077;SDS011;75967;50.970;4.574;2024-02-04T10:31:10;8.25;;;3.63;;
57077;SDS011;75967;50.970;4.574;2024-02-04T10:33:36;6.38;;;2.97;;
57077;SDS011;75967;50.970;4.574;2024-02-04T10:36:02;10.98;;;4.80;;
57077;SDS011;75967;50.970;4.574;2024-02-04T10:38:29;7.00;;;3.20;;
57077;SDS011;75967;50.970;4.574;2024-02-04T10:40:55;6.20;;;2.88;;
57077;SDS011;75967;50.970;4.574;2024-02-04T10:43:24;6.47;;;2.95;;
57077;SDS011;75967;50.970;4.574;2024-02-04T10:45:52;3.75;;;2.78;;
57077;SDS011;75967;50.970;4.574;2024-02-04T10:48:22;7.05;;;3.20;;
57077;SDS011;75967;50.970;4.574;2024-02-04T10:50:52;7.70;;;3.72;;
57077;SDS011;75967;50.970;4.574;2024-02-04T10:53:21;6.50;;;3.17;;
57077;SDS011;75967;50.970;4.574;2024-02-04T10:55:48;7.15;;;2.80;;
57077;SDS011;75967;50.970;4.574;2024-02-04T10:58:17;6.30;;;3.17;;
57077;SDS011;75967;50.970;4.574;2024-02-04T11:00:43;6.18;;;3.13;;
57077;SDS011;75967;50.970;4.574;2024-02-04T11:03:10;4.47;;;2.75;;
57077;SDS011;75967;50.970;4.574;2024-02-04T11:05:37;6.10;;;3.15;;
57077;SDS011;75967;50.970;4.574;2024-02-04T11:08:07;6.95;;;3.20;;
57077;SDS011;75967;50.970;4.574;2024-02-04T11:10:35;5.35;;;3.03;;
57077;SDS011;75967;50.970;4.574;2024-02-04T11:13:03;6.20;;;3.40;;
57077;SDS011;75967;50.970;4.574;2024-02-04T11:15:32;4.63;;;3.13;;
57077;SDS011;75967;50.970;4.574;2024-02-04T11:26:29;7.50;;;3.33;;
57077;SDS011;75967;50.970;4.574;2024-02-04T11:28:55;5.70;;;2.92;;
57077;SDS011;75967;50.970;4.574;2024-02-04T11:31:21;4.60;;;2.78;;
57077;SDS011;75967;50.970;4.574;2024-02-04T11:33:47;3.92;;;3.15;;
57077;SDS011;75967;50.970;4.574;2024-02-04T11:36:15;6.85;;;2.58;;
57077;SDS011;75967;50.970;4.574;2024-02-04T11:38:43;11.35;;;3.75;;
57077;SDS011;75967;50.970;4.574;2024-02-04T11:41:20;7.75;;;4.10;;
57077;SDS011;75967;50.970;4.574;2024-02-04T11:43:51;5.30;;;2.83;;
57077;SDS011;75967;50.970;4.574;2024-02-04T11:46:18;4.63;;;2.78;;
57077;SDS011;75967;50.970;4.574;2024-02-04T11:48:50;7.75;;;2.92;;
57077;SDS011;75967;50.970;4.574;2024-02-04T11:51:18;5.63;;;2.30;;
57077;SDS011;75967;50.970;4.574;2024-02-04T11:53:46;4.95;;;2.50;;
57077;SDS011;75967;50.970;4.574;2024-02-04T11:56:12;7.00;;;2.55;;
57077;SDS011;75967;50.970;4.574;2024-02-04T11:58:38;5.72;;;2.30;;
57077;SDS011;75967;50.970;4.574;2024-02-04T12:01:05;4.40;;;1.90;;
57077;SDS011;75967;50.970;4.574;2024-02-04T12:03:35;4.43;;;2.42;;
57077;SDS011;75967;50.970;4.574;2024-02-04T12:06:02;6.18;;;2.42;;
57077;SDS011;75967;50.970;4.574;2024-02-04T12:08:31;6.63;;;2.67;;
57077;SDS011;75967;50.970;4.574;2024-02-04T12:10:59;4.88;;;2.45;;
57077;SDS011;75967;50.970;4.574;2024-02-04T12:13:27;5.78;;;2.15;;
57077;SDS011;75967;50.970;4.574;2024-02-04T12:15:54;7.05;;;2.10;;
57077;SDS011;75967;50.970;4.574;2024-02-04T12:18:20;2.95;;;2.28;;
57077;SDS011;75967;50.970;4.574;2024-02-04T12:20:46;4.50;;;2.53;;
57077;SDS011;75967;50.970;4.574;2024-02-04T12:23:16;2.63;;;1.92;;
57077;SDS011;75967;50.970;4.574;2024-02-04T12:25:42;3.22;;;1.65;;
57077;SDS011;75967;50.970;4.574;2024-02-04T12:28:08;4.10;;;2.13;;
57077;SDS011;75967;50.970;4.574;2024-02-04T12:30:34;7.47;;;2.35;;
57077;SDS011;75967;50.970;4.574;2024-02-04T12:33:01;5.50;;;2.30;;
57077;SDS011;75967;50.970;4.574;2024-02-04T12:35:29;5.03;;;2.20;;
57077;SDS011;75967;50.970;4.574;2024-02-04T12:37:55;4.85;;;2.72;;
57077;SDS011;75967;50.970;4.574;2024-02-04T12:40:23;3.22;;;1.98;;
57077;SDS011;75967;50.970;4.574;2024-02-04T12:42:56;4.90;;;2.13;;
57077;SDS011;75967;50.970;4.574;2024-02-04T12:45:23;7.20;;;2.28;;
57077;SDS011;75967;50.970;4.574;2024-02-04T12:47:50;5.82;;;2.42;;
57077;SDS011;75967;50.970;4.574;2024-02-04T12:50:20;4.32;;;2.60;;
57077;SDS011;75967;50.970;4.574;2024-02-04T12:52:47;3.80;;;2.50;;
57077;SDS011;75967;50.970;4.574;2024-02-04T12:55:26;4.18;;;2.50;;
57077;SDS011;75967;50.970;4.574;2024-02-04T12:58:16;6.43;;;2.42;;
57077;SDS011;75967;50.970;4.574;2024-02-04T13:00:43;8.27;;;2.13;;
57077;SDS011;75967;50.970;4.574;2024-02-04T13:03:09;5.00;;;2.00;;
57077;SDS011;75967;50.970;4.574;2024-02-04T13:05:35;6.35;;;1.88;;
57077;SDS011;75967;50.970;4.574;2024-02-04T13:08:01;6.65;;;2.58;;
57077;SDS011;75967;50.970;4.574;2024-02-04T13:10:29;3.22;;;1.92;;
57077;SDS011;75967;50.970;4.574;2024-02-04T13:13:08;4.78;;;1.90;;
57077;SDS011;75967;50.970;4.574;2024-02-04T13:15:36;2.10;;;1.85;;
57077;SDS011;75967;50.970;4.574;2024-02-04T13:18:04;2.15;;;1.85;;
57077;SDS011;75967;50.970;4.574;2024-02-04T13:20:30;3.47;;;1.40;;
57077;SDS011;75967;50.970;4.574;2024-02-04T13:22:56;4.60;;;1.90;;
57077;SDS011;75967;50.970;4.574;2024-02-04T13:25:22;3.40;;;1.77;;
57077;SDS011;75967;50.970;4.574;2024-02-04T13:27:49;3.00;;;1.98;;
57077;SDS011;75967;50.970;4.574;2024-02-04T13:30:15;3.75;;;1.83;;
57077;SDS011;75967;50.970;4.574;2024-02-04T13:32:41;1.55;;;1.45;;
57077;SDS011;75967;50.970;4.574;2024-02-04T13:35:08;3.58;;;1.98;;
57077;SDS011;75967;50.970;4.574;2024-02-04T13:37:41;4.40;;;2.40;;
57077;SDS011;75967;50.970;4.574;2024-02-04T13:40:12;3.65;;;2.10;;
57077;SDS011;75967;50.970;4.574;2024-02-04T13:42:39;4.28;;;1.85;;
57077;SDS011;75967;50.970;4.574;2024-02-04T13:45:05;2.38;;;1.90;;
57077;SDS011;75967;50.970;4.574;2024-02-04T13:47:31;2.38;;;1.83;;
57077;SDS011;75967;50.970;4.574;2024-02-04T13:49:57;1.58;;;1.40;;
57077;SDS011;75967;50.970;4.574;2024-02-04T13:52:22;3.20;;;1.60;;
57077;SDS011;75967;50.970;4.574;2024-02-04T13:54:48;3.97;;;1.80;;
57077;SDS011;75967;50.970;4.574;2024-02-04T13:57:14;2.47;;;1.60;;
57077;SDS011;75967;50.970;4.574;2024-02-04T13:59:39;1.50;;;1.40;;
57077;SDS011;75967;50.970;4.574;2024-02-04T14:02:05;2.78;;;1.45;;
57077;SDS011;75967;50.970;4.574;2024-02-04T14:04:33;3.63;;;1.70;;
57077;SDS011;75967;50.970;4.574;2024-02-04T14:06:59;4.07;;;1.83;;
57077;SDS011;75967;50.970;4.574;2024-02-04T14:09:25;2.72;;;1.42;;
57077;SDS011;75967;50.970;4.574;2024-02-04T14:11:51;3.10;;;1.33;;
57077;SDS011;75967;50.970;4.574;2024-02-04T14:14:19;2.67;;;1.55;;
57077;SDS011;75967;50.970;4.574;2024-02-04T14:16:48;5.55;;;1.83;;
57077;SDS011;75967;50.970;4.574;2024-02-04T14:19:14;4.18;;;1.52;;
57077;SDS011;75967;50.970;4.574;2024-02-04T14:21:43;5.10;;;2.28;;
57077;SDS011;75967;50.970;4.574;2024-02-04T14:24:08;5.57;;;1.90;;
57077;SDS011;75967;50.970;4.574;2024-02-04T14:26:34;2.28;;;1.90;;
57077;SDS011;75967;50.970;4.574;2024-02-04T14:29:00;7.60;;;2.15;;
57077;SDS011;75967;50.970;4.574;2024-02-04T14:31:25;3.63;;;1.88;;
57077;SDS011;75967;50.970;4.574;2024-02-04T14:33:51;6.70;;;3.75;;
57077;SDS011;75967;50.970;4.574;2024-02-04T14:36:17;5.88;;;1.92;;
57077;SDS011;75967;50.970;4.574;2024-02-04T14:38:42;7.38;;;2.88;;
57077;SDS011;75967;50.970;4.574;2024-02-04T14:41:08;4.63;;;2.35;;
57077;SDS011;75967;50.970;4.574;2024-02-04T14:43:37;6.05;;;2.40;;
57077;SDS011;75967;50.970;4.574;2024-02-04T14:46:03;5.57;;;2.63;;